sensor_id;sensor_type;location;lat;lon;timestamp;pressure;altitude;pressure_sealevel;temperature;humidity
6024;BME280;3040;42.654;23.296;2024-03-06T00:02:11;93971.47;;;8.75;81.88
6024;BME280;3040;42.654;23.296;2024-03-06T00:04:38;93971.25;;;8.80;81.73
6024;BME280;3040;42.654;23.296;2024-03-06T00:07:05;93972.78;;;8.93;81.00
6024;BME280;3040;42.654;23.296;2024-03-06T00:09:31;93976.34;;;8.85;81.37
6024;BME280;3040;42.654;23.296;2024-03-06T00:12:00;93962.41;;;8.76;81.34
6024;BME280;3040;42.654;23.296;2024-03-06T00:14:27;93976.66;;;8.83;80.58
6024;BME280;3040;42.654;23.296;2024-03-06T00:16:53;93973.91;;;8.80;80.47
6024;BME280;3040;42.654;23.296;2024-03-06T00:19:21;93976.75;;;8.63;80.81
6024;BME280;3040;42.654;23.296;2024-03-06T00:21:48;93978.75;;;8.66;81.45
6024;BME280;3040;42.654;23.296;2024-03-06T00:24:15;93966.16;;;8.75;80.58
6024;BME280;3040;42.654;23.296;2024-03-06T00:26:44;93939.88;;;8.57;80.24
6024;BME280;3040;42.654;23.296;2024-03-06T00:29:12;93970.03;;;8.77;80.24
6024;BME280;3040;42.654;23.296;2024-03-06T00:31:42;93970.13;;;8.81;79.56
6024;BME280;3040;42.654;23.296;2024-03-06T00:34:09;93974.00;;;8.83;79.32
6024;BME280;3040;42.654;23.296;2024-03-06T00:36:36;93971.47;;;8.87;79.26
6024;BME280;3040;42.654;23.296;2024-03-06T00:39:03;93974.88;;;8.75;79.17
6024;BME280;3040;42.654;23.296;2024-03-06T00:41:30;93974.22;;;8.54;80.28
6024;BME280;3040;42.654;23.296;2024-03-06T00:43:57;93971.88;;;8.40;80.56
6024;BME280;3040;42.654;23.296;2024-03-06T00:46:25;93939.06;;;7.88;82.69
6024;BME280;3040;42.654;23.296;2024-03-06T00:48:52;93962.06;;;8.08;83.09
6024;BME280;3040;42.654;23.296;2024-03-06T00:51:18;93970.16;;;8.11;83.18
6024;BME280;3040;42.654;23.296;2024-03-06T00:53:45;93963.66;;;8.21;82.77
6024;BME280;3040;42.654;23.296;2024-03-06T00:56:12;93970.91;;;8.12;82.69
6024;BME280;3040;42.654;23.296;2024-03-06T00:58:38;93965.81;;;7.95;83.34
6024;BME280;3040;42.654;23.296;2024-03-06T01:01:04;93967.53;;;7.91;84.07
6024;BME280;3040;42.654;23.296;2024-03-06T01:03:32;93970.69;;;8.05;83.50
6024;BME280;3040;42.654;23.296;2024-03-06T01:05:59;93976.84;;;8.09;83.44
6024;BME280;3040;42.654;23.296;2024-03-06T01:08:26;93968.31;;;8.24;82.78
6024;BME280;3040;42.654;23.296;2024-03-06T01:10:53;93974.75;;;8.35;81.10
6024;BME280;3040;42.654;23.296;2024-03-06T01:13:20;93981.84;;;8.43;79.98
6024;BME280;3040;42.654;23.296;2024-03-06T01:15:47;93977.53;;;8.51;80.33
6024;BME280;3040;42.654;23.296;2024-03-06T01:18:13;93980.63;;;8.53;79.25
6024;BME280;3040;42.654;23.296;2024-03-06T01:20:41;93973.91;;;8.55;77.85
6024;BME280;3040;42.654;23.296;2024-03-06T01:23:08;93972.69;;;8.53;77.94
6024;BME280;3040;42.654;23.296;2024-03-06T01:25:35;93976.56;;;8.55;78.34
6024;BME280;3040;42.654;23.296;2024-03-06T01:28:02;93974.69;;;8.23;79.35
6024;BME280;3040;42.654;23.296;2024-03-06T01:30:29;93972.22;;;8.06;79.70
6024;BME280;3040;42.654;23.296;2024-03-06T01:32:55;93973.78;;;8.07;79.83
6024;BME280;3040;42.654;23.296;2024-03-06T01:35:23;93961.16;;;7.92;80.66
6024;BME280;3040;42.654;23.296;2024-03-06T01:37:51;93967.69;;;7.73;81.30
6024;BME280;3040;42.654;23.296;2024-03-06T01:40:18;93974.09;;;7.72;82.21
6024;BME280;3040;42.654;23.296;2024-03-06T01:42:46;93933.03;;;7.33;83.89
6024;BME280;3040;42.654;23.296;2024-03-06T01:45:13;93964.63;;;7.71;82.93
6024;BME280;3040;42.654;23.296;2024-03-06T01:47:40;93964.94;;;7.70;83.28
6024;BME280;3040;42.654;23.296;2024-03-06T01:50:08;93958.59;;;7.83;82.63
6024;BME280;3040;42.654;23.296;2024-03-06T01:52:36;93966.31;;;7.88;80.80
6024;BME280;3040;42.654;23.296;2024-03-06T01:55:06;93966.91;;;7.94;81.37
6024;BME280;3040;42.654;23.296;2024-03-06T01:57:34;93960.72;;;8.02;80.61
6024;BME280;3040;42.654;23.296;2024-03-06T02:00:03;93962.13;;;7.87;80.16
6024;BME280;3040;42.654;23.296;2024-03-06T02:02:30;93964.31;;;7.52;81.16
6024;BME280;3040;42.654;23.296;2024-03-06T02:04:57;93960.69;;;7.36;83.06
6024;BME280;3040;42.654;23.296;2024-03-06T02:07:25;93967.84;;;7.15;84.65
6024;BME280;3040;42.654;23.296;2024-03-06T02:09:52;93972.69;;;7.13;85.35
6024;BME280;3040;42.654;23.296;2024-03-06T02:12:20;93967.06;;;7.14;86.25
6024;BME280;3040;42.654;23.296;2024-03-06T02:14:46;93975.13;;;7.18;86.74
6024;BME280;3040;42.654;23.296;2024-03-06T02:17:13;93974.88;;;7.31;86.00
6024;BME280;3040;42.654;23.296;2024-03-06T02:19:40;93981.47;;;7.46;84.54
6024;BME280;3040;42.654;23.296;2024-03-06T02:22:10;93684.13;;;5.65;82.90
6024;BME280;3040;42.654;23.296;2024-03-06T02:24:37;93959.78;;;7.53;82.42
6024;BME280;3040;42.654;23.296;2024-03-06T02:27:04;93994.75;;;7.79;82.11
6024;BME280;3040;42.654;23.296;2024-03-06T02:29:32;93995.66;;;7.83;80.74
6024;BME280;3040;42.654;23.296;2024-03-06T02:31:59;93992.91;;;7.92;80.28
6024;BME280;3040;42.654;23.296;2024-03-06T02:34:27;93992.91;;;7.92;80.17
6024;BME280;3040;42.654;23.296;2024-03-06T02:36:54;93995.59;;;8.04;80.42
6024;BME280;3040;42.654;23.296;2024-03-06T02:39:23;94001.34;;;8.06;81.14
6024;BME280;3040;42.654;23.296;2024-03-06T02:41:49;93992.91;;;7.92;81.56
6024;BME280;3040;42.654;23.296;2024-03-06T02:44:16;93999.13;;;7.54;83.55
6024;BME280;3040;42.654;23.296;2024-03-06T02:46:46;93999.28;;;7.37;85.08
6024;BME280;3040;42.654;23.296;2024-03-06T02:49:14;93997.72;;;7.36;85.78
6024;BME280;3040;42.654;23.296;2024-03-06T02:51:41;94001.34;;;7.52;84.66
6024;BME280;3040;42.654;23.296;2024-03-06T02:54:07;94004.31;;;7.71;83.33
6024;BME280;3040;42.654;23.296;2024-03-06T02:56:35;93964.75;;;7.54;82.58
6024;BME280;3040;42.654;23.296;2024-03-06T02:59:02;93967.66;;;7.61;83.05
6024;BME280;3040;42.654;23.296;2024-03-06T03:01:29;93957.84;;;7.62;83.18
6024;BME280;3040;42.654;23.296;2024-03-06T03:03:56;93998.34;;;7.95;83.01
6024;BME280;3040;42.654;23.296;2024-03-06T03:06:23;94003.31;;;7.97;82.33
6024;BME280;3040;42.654;23.296;2024-03-06T03:08:50;94009.31;;;8.06;81.67
6024;BME280;3040;42.654;23.296;2024-03-06T03:11:17;93998.03;;;8.09;81.17
6024;BME280;3040;42.654;23.296;2024-03-06T03:13:45;94000.47;;;8.14;80.32
6024;BME280;3040;42.654;23.296;2024-03-06T03:16:16;94005.91;;;8.17;79.70
6024;BME280;3040;42.654;23.296;2024-03-06T03:18:43;94012.09;;;8.22;78.57
6024;BME280;3040;42.654;23.296;2024-03-06T03:21:10;94011.22;;;8.17;78.73
6024;BME280;3040;42.654;23.296;2024-03-06T03:23:38;94015.94;;;8.12;78.81
6024;BME280;3040;42.654;23.296;2024-03-06T03:26:05;94014.47;;;8.02;79.43
6024;BME280;3040;42.654;23.296;2024-03-06T03:28:31;94014.59;;;8.06;79.73
6024;BME280;3040;42.654;23.296;2024-03-06T03:31:00;94013.50;;;8.07;79.88
6024;BME280;3040;42.654;23.296;2024-03-06T03:33:27;94017.31;;;7.97;80.16
6024;BME280;3040;42.654;23.296;2024-03-06T03:35:53;94015.53;;;7.89;80.60
6024;BME280;3040;42.654;23.296;2024-03-06T03:38:20;93973.31;;;7.72;80.57
6024;BME280;3040;42.654;23.296;2024-03-06T03:40:47;94013.88;;;7.97;79.50
6024;BME280;3040;42.654;23.296;2024-03-06T03:43:14;94010.16;;;7.98;78.58
6024;BME280;3040;42.654;23.296;2024-03-06T03:45:41;94023.53;;;8.01;77.36
6024;BME280;3040;42.654;23.296;2024-03-06T03:48:09;94021.84;;;7.97;77.31
6024;BME280;3040;42.654;23.296;2024-03-06T03:50:36;94019.53;;;7.74;78.26
6024;BME280;3040;42.654;23.296;2024-03-06T03:53:02;94019.09;;;7.72;80.04
6024;BME280;3040;42.654;23.296;2024-03-06T03:55:29;94022.13;;;7.62;79.39
6024;BME280;3040;42.654;23.296;2024-03-06T03:57:56;94026.81;;;7.15;81.47
6024;BME280;3040;42.654;23.296;2024-03-06T04:00:23;94023.09;;;7.08;82.30
6024;BME280;3040;42.654;23.296;2024-03-06T04:02:50;94019.09;;;7.02;83.23
6024;BME280;3040;42.654;23.296;2024-03-06T04:05:18;94027.31;;;7.09;82.71
6024;BME280;3040;42.654;23.296;2024-03-06T04:07:45;94031.78;;;7.17;82.42
6024;BME280;3040;42.654;23.296;2024-03-06T04:10:11;94019.38;;;7.09;82.21
6024;BME280;3040;42.654;23.296;2024-03-06T04:12:38;94029.88;;;6.88;82.41
6024;BME280;3040;42.654;23.296;2024-03-06T04:15:06;94030.47;;;6.93;83.35
6024;BME280;3040;42.654;23.296;2024-03-06T04:17:34;94039.06;;;6.90;83.05
6024;BME280;3040;42.654;23.296;2024-03-06T04:20:01;94034.41;;;6.87;83.59
6024;BME280;3040;42.654;23.296;2024-03-06T04:22:29;94049.22;;;6.80;84.23
6024;BME280;3040;42.654;23.296;2024-03-06T04:24:56;94047.00;;;6.82;83.55
6024;BME280;3040;42.654;23.296;2024-03-06T04:27:24;94044.97;;;6.87;83.77
6024;BME280;3040;42.654;23.296;2024-03-06T04:29:51;94047.66;;;6.79;84.97
6024;BME280;3040;42.654;23.296;2024-03-06T04:32:18;94043.69;;;6.93;84.54
6024;BME280;3040;42.654;23.296;2024-03-06T04:34:44;94041.16;;;7.06;83.51
6024;BME280;3040;42.654;23.296;2024-03-06T04:37:12;94012.91;;;6.98;82.98
6024;BME280;3040;42.654;23.296;2024-03-06T04:39:40;94036.72;;;7.18;81.32
6024;BME280;3040;42.654;23.296;2024-03-06T04:42:07;94051.28;;;7.33;81.18
6024;BME280;3040;42.654;23.296;2024-03-06T04:44:34;94056.84;;;7.40;79.91
6024;BME280;3040;42.654;23.296;2024-03-06T04:47:01;94069.88;;;7.45;79.47
6024;BME280;3040;42.654;23.296;2024-03-06T04:49:27;94064.69;;;7.28;81.13
6024;BME280;3040;42.654;23.296;2024-03-06T04:51:54;94066.00;;;7.13;82.31
6024;BME280;3040;42.654;23.296;2024-03-06T04:54:21;94067.88;;;7.13;81.96
6024;BME280;3040;42.654;23.296;2024-03-06T04:56:49;94072.66;;;6.81;83.26
6024;BME280;3040;42.654;23.296;2024-03-06T04:59:16;94063.44;;;6.96;83.32
6024;BME280;3040;42.654;23.296;2024-03-06T05:01:42;94070.66;;;6.87;84.00
6024;BME280;3040;42.654;23.296;2024-03-06T05:04:09;94064.31;;;6.71;84.79
6024;BME280;3040;42.654;23.296;2024-03-06T05:06:37;94041.09;;;6.47;85.54
6024;BME280;3040;42.654;23.296;2024-03-06T05:09:03;94071.28;;;6.84;85.46
6024;BME280;3040;42.654;23.296;2024-03-06T05:11:31;94066.56;;;6.98;84.79
6024;BME280;3040;42.654;23.296;2024-03-06T05:13:59;94069.00;;;7.03;83.01
6024;BME280;3040;42.654;23.296;2024-03-06T05:16:26;94070.97;;;7.15;82.30
6024;BME280;3040;42.654;23.296;2024-03-06T05:18:53;94074.50;;;7.27;82.10
6024;BME280;3040;42.654;23.296;2024-03-06T05:21:20;94067.34;;;7.28;81.37
6024;BME280;3040;42.654;23.296;2024-03-06T05:23:48;94071.16;;;7.39;80.34
6024;BME280;3040;42.654;23.296;2024-03-06T05:26:15;94081.84;;;7.22;80.63
6024;BME280;3040;42.654;23.296;2024-03-06T05:28:42;94085.84;;;7.28;80.85
6024;BME280;3040;42.654;23.296;2024-03-06T05:31:17;94088.13;;;7.09;82.41
6024;BME280;3040;42.654;23.296;2024-03-06T05:33:44;94091.75;;;7.25;82.54
6024;BME280;3040;42.654;23.296;2024-03-06T05:36:11;94010.66;;;6.79;83.00
6024;BME280;3040;42.654;23.296;2024-03-06T05:38:40;94085.84;;;7.28;84.01
6024;BME280;3040;42.654;23.296;2024-03-06T05:41:06;94085.28;;;7.43;83.80
6024;BME280;3040;42.654;23.296;2024-03-06T05:43:33;94088.28;;;7.62;83.14
6024;BME280;3040;42.654;23.296;2024-03-06T05:46:00;94091.28;;;7.82;82.84
6024;BME280;3040;42.654;23.296;2024-03-06T05:48:28;94092.22;;;7.98;81.72
6024;BME280;3040;42.654;23.296;2024-03-06T05:50:55;94099.47;;;8.09;81.28
6024;BME280;3040;42.654;23.296;2024-03-06T05:53:22;94098.88;;;8.25;81.00
6024;BME280;3040;42.654;23.296;2024-03-06T05:55:49;94069.59;;;8.21;80.76
6024;BME280;3040;42.654;23.296;2024-03-06T05:58:16;94105.41;;;8.48;80.83
6024;BME280;3040;42.654;23.296;2024-03-06T06:00:43;94108.47;;;8.50;79.96
6024;BME280;3040;42.654;23.296;2024-03-06T06:03:09;94109.41;;;8.54;79.86
6024;BME280;3040;42.654;23.296;2024-03-06T06:05:38;94115.72;;;8.62;80.24
6024;BME280;3040;42.654;23.296;2024-03-06T06:08:07;94122.00;;;8.69;79.74
6024;BME280;3040;42.654;23.296;2024-03-06T06:10:34;94117.63;;;8.73;79.94
6024;BME280;3040;42.654;23.296;2024-03-06T06:13:01;94106.84;;;8.57;79.95
6024;BME280;3040;42.654;23.296;2024-03-06T06:15:30;94049.97;;;8.22;79.87
6024;BME280;3040;42.654;23.296;2024-03-06T06:17:57;94114.22;;;8.85;79.66
6024;BME280;3040;42.654;23.296;2024-03-06T06:20:24;94117.75;;;8.89;79.54
6024;BME280;3040;42.654;23.296;2024-03-06T06:22:52;94119.78;;;8.92;78.97
6024;BME280;3040;42.654;23.296;2024-03-06T06:25:19;94116.91;;;8.97;78.82
6024;BME280;3040;42.654;23.296;2024-03-06T06:27:45;94126.91;;;8.79;79.16
6024;BME280;3040;42.654;23.296;2024-03-06T06:30:14;94116.88;;;8.85;80.04
6024;BME280;3040;42.654;23.296;2024-03-06T06:32:41;94109.91;;;8.92;80.01
6024;BME280;3040;42.654;23.296;2024-03-06T06:35:08;94116.69;;;9.02;79.58
6024;BME280;3040;42.654;23.296;2024-03-06T06:37:37;94056.53;;;8.82;80.51
6024;BME280;3040;42.654;23.296;2024-03-06T06:40:06;94113.16;;;9.22;80.13
6024;BME280;3040;42.654;23.296;2024-03-06T06:42:34;94110.50;;;9.34;78.99
6024;BME280;3040;42.654;23.296;2024-03-06T06:45:01;94113.28;;;9.50;79.50
6024;BME280;3040;42.654;23.296;2024-03-06T06:47:28;94110.06;;;9.69;78.57
6024;BME280;3040;42.654;23.296;2024-03-06T06:49:55;94112.50;;;9.74;77.07
6024;BME280;3040;42.654;23.296;2024-03-06T06:52:22;94065.50;;;9.50;75.79
6024;BME280;3040;42.654;23.296;2024-03-06T06:54:48;94121.28;;;10.02;76.19
6024;BME280;3040;42.654;23.296;2024-03-06T06:57:18;94128.38;;;9.98;74.37
6024;BME280;3040;42.654;23.296;2024-03-06T06:59:45;94127.09;;;9.68;75.97
6024;BME280;3040;42.654;23.296;2024-03-06T07:02:12;94120.88;;;10.00;77.05
6024;BME280;3040;42.654;23.296;2024-03-06T07:04:38;94130.16;;;10.06;75.32
6024;BME280;3040;42.654;23.296;2024-03-06T07:07:05;94124.03;;;10.30;74.78
6024;BME280;3040;42.654;23.296;2024-03-06T07:09:31;94124.88;;;10.34;73.68
6024;BME280;3040;42.654;23.296;2024-03-06T07:11:57;94124.66;;;10.39;74.18
6024;BME280;3040;42.654;23.296;2024-03-06T07:14:25;94090.16;;;10.43;74.43
6024;BME280;3040;42.654;23.296;2024-03-06T07:16:52;94124.78;;;10.58;72.95
6024;BME280;3040;42.654;23.296;2024-03-06T07:19:19;94121.31;;;10.70;72.42
6024;BME280;3040;42.654;23.296;2024-03-06T07:21:46;94123.50;;;10.96;72.09
6024;BME280;3040;42.654;23.296;2024-03-06T07:24:12;94121.00;;;10.87;72.84
6024;BME280;3040;42.654;23.296;2024-03-06T07:26:39;94126.59;;;10.98;73.95
6024;BME280;3040;42.654;23.296;2024-03-06T07:29:06;94124.81;;;11.18;72.96
6024;BME280;3040;42.654;23.296;2024-03-06T07:31:41;94129.78;;;11.35;72.49
6024;BME280;3040;42.654;23.296;2024-03-06T07:34:08;94130.72;;;11.42;71.34
6024;BME280;3040;42.654;23.296;2024-03-06T07:36:35;94130.75;;;11.74;70.45
6024;BME280;3040;42.654;23.296;2024-03-06T07:39:02;94125.28;;;11.70;69.83
6024;BME280;3040;42.654;23.296;2024-03-06T07:41:29;94113.88;;;11.86;69.68
6024;BME280;3040;42.654;23.296;2024-03-06T07:44:02;94111.47;;;11.80;69.11
6024;BME280;3040;42.654;23.296;2024-03-06T07:46:29;94091.75;;;11.50;67.64
6024;BME280;3040;42.654;23.296;2024-03-06T07:48:57;94124.88;;;11.84;69.07
6024;BME280;3040;42.654;23.296;2024-03-06T07:51:24;94113.59;;;11.91;67.80
6024;BME280;3040;42.654;23.296;2024-03-06T07:53:50;94121.22;;;12.27;68.14
6024;BME280;3040;42.654;23.296;2024-03-06T07:56:17;94126.09;;;12.41;67.21
6024;BME280;3040;42.654;23.296;2024-03-06T07:58:44;94128.97;;;12.71;66.22
6024;BME280;3040;42.654;23.296;2024-03-06T08:01:11;94126.06;;;12.79;65.56
6024;BME280;3040;42.654;23.296;2024-03-06T08:03:39;94120.34;;;13.00;64.97
6024;BME280;3040;42.654;23.296;2024-03-06T08:06:07;94134.69;;;13.34;65.78
6024;BME280;3040;42.654;23.296;2024-03-06T08:08:34;94018.03;;;12.50;65.12
6024;BME280;3040;42.654;23.296;2024-03-06T08:11:01;94128.94;;;13.55;64.47
6024;BME280;3040;42.654;23.296;2024-03-06T08:13:28;94137.16;;;13.69;61.68
6024;BME280;3040;42.654;23.296;2024-03-06T08:15:55;94143.03;;;13.78;63.20
6024;BME280;3040;42.654;23.296;2024-03-06T08:18:22;94137.78;;;13.85;66.73
6024;BME280;3040;42.654;23.296;2024-03-06T08:20:48;94139.44;;;13.67;63.52
6024;BME280;3040;42.654;23.296;2024-03-06T08:23:16;94136.94;;;13.55;61.88
6024;BME280;3040;42.654;23.296;2024-03-06T08:25:43;94104.53;;;13.56;61.26
6024;BME280;3040;42.654;23.296;2024-03-06T08:28:10;94136.47;;;13.98;63.02
6024;BME280;3040;42.654;23.296;2024-03-06T08:30:37;94123.69;;;14.14;60.34
6024;BME280;3040;42.654;23.296;2024-03-06T08:33:03;94135.28;;;13.96;59.68
6024;BME280;3040;42.654;23.296;2024-03-06T08:35:31;94134.59;;;14.02;61.81
6024;BME280;3040;42.654;23.296;2024-03-06T08:37:57;94130.75;;;14.30;59.74
6024;BME280;3040;42.654;23.296;2024-03-06T08:40:27;93997.69;;;13.60;58.43
6024;BME280;3040;42.654;23.296;2024-03-06T08:42:54;94142.38;;;14.37;58.17
6024;BME280;3040;42.654;23.296;2024-03-06T08:45:20;94135.88;;;14.68;58.52
6024;BME280;3040;42.654;23.296;2024-03-06T08:47:49;94139.00;;;15.11;57.07
6024;BME280;3040;42.654;23.296;2024-03-06T08:50:16;94138.22;;;15.47;56.41
6024;BME280;3040;42.654;23.296;2024-03-06T08:52:42;94136.25;;;15.84;53.94
6024;BME280;3040;42.654;23.296;2024-03-06T08:55:09;94135.66;;;16.16;54.65
6024;BME280;3040;42.654;23.296;2024-03-06T08:57:38;94141.94;;;16.38;51.84
6024;BME280;3040;42.654;23.296;2024-03-06T09:00:06;94132.13;;;16.66;51.33
6024;BME280;3040;42.654;23.296;2024-03-06T09:02:36;94111.78;;;16.65;52.40
6024;BME280;3040;42.654;23.296;2024-03-06T09:05:03;94134.22;;;17.26;50.21
6024;BME280;3040;42.654;23.296;2024-03-06T09:07:30;94136.56;;;17.35;50.63
6024;BME280;3040;42.654;23.296;2024-03-06T09:10:03;94134.69;;;17.71;47.85
6024;BME280;3040;42.654;23.296;2024-03-06T09:12:31;94131.53;;;17.26;49.29
6024;BME280;3040;42.654;23.296;2024-03-06T09:14:59;94128.53;;;17.92;47.81
6024;BME280;3040;42.654;23.296;2024-03-06T09:17:26;94111.63;;;17.98;47.44
6024;BME280;3040;42.654;23.296;2024-03-06T09:19:53;94133.81;;;18.52;45.59
6024;BME280;3040;42.654;23.296;2024-03-06T09:22:20;94133.69;;;18.87;45.38
6024;BME280;3040;42.654;23.296;2024-03-06T09:24:46;94120.72;;;18.54;46.21
6024;BME280;3040;42.654;23.296;2024-03-06T09:27:14;94134.06;;;18.96;44.56
6024;BME280;3040;42.654;23.296;2024-03-06T09:29:41;94122.19;;;18.83;45.16
6024;BME280;3040;42.654;23.296;2024-03-06T09:32:09;94128.91;;;19.23;44.66
6024;BME280;3040;42.654;23.296;2024-03-06T09:34:38;94112.59;;;19.48;43.67
6024;BME280;3040;42.654;23.296;2024-03-06T09:37:05;94120.16;;;19.67;41.35
6024;BME280;3040;42.654;23.296;2024-03-06T09:39:31;94117.16;;;19.58;41.86
6024;BME280;3040;42.654;23.296;2024-03-06T09:41:59;94117.16;;;19.58;42.07
6024;BME280;3040;42.654;23.296;2024-03-06T09:44:27;94105.75;;;19.33;40.41
6024;BME280;3040;42.654;23.296;2024-03-06T09:46:54;94110.97;;;19.61;42.49
6024;BME280;3040;42.654;23.296;2024-03-06T09:49:24;94108.75;;;19.49;42.22
6024;BME280;3040;42.654;23.296;2024-03-06T09:51:51;94093.84;;;19.23;40.09
6024;BME280;3040;42.654;23.296;2024-03-06T09:54:21;94112.81;;;19.05;41.77
6024;BME280;3040;42.654;23.296;2024-03-06T09:56:49;94102.25;;;18.66;41.34
6024;BME280;3040;42.654;23.296;2024-03-06T09:59:16;94107.69;;;18.56;43.82
6024;BME280;3040;42.654;23.296;2024-03-06T10:01:49;94099.09;;;18.82;42.82
6024;BME280;3040;42.654;23.296;2024-03-06T10:04:20;94104.53;;;19.41;41.79
6024;BME280;3040;42.654;23.296;2024-03-06T10:06:48;94096.97;;;19.77;40.95
6024;BME280;3040;42.654;23.296;2024-03-06T10:09:18;94091.13;;;20.23;39.58
6024;BME280;3040;42.654;23.296;2024-03-06T10:11:44;94091.47;;;20.66;37.54
6024;BME280;3040;42.654;23.296;2024-03-06T10:14:11;94086.03;;;20.32;37.86
6024;BME280;3040;42.654;23.296;2024-03-06T10:16:51;94089.50;;;20.36;38.47
6024;BME280;3040;42.654;23.296;2024-03-06T10:19:19;94066.31;;;19.53;38.37
6024;BME280;3040;42.654;23.296;2024-03-06T10:21:48;94086.25;;;19.66;39.90
6024;BME280;3040;42.654;23.296;2024-03-06T10:24:18;94084.91;;;19.88;39.42
6024;BME280;3040;42.654;23.296;2024-03-06T10:26:45;94082.38;;;20.12;38.26
6024;BME280;3040;42.654;23.296;2024-03-06T10:29:15;94077.88;;;20.39;37.41
6024;BME280;3040;42.654;23.296;2024-03-06T10:31:47;94079.25;;;20.54;36.53
6024;BME280;3040;42.654;23.296;2024-03-06T10:34:14;94071.41;;;20.63;36.50
6024;BME280;3040;42.654;23.296;2024-03-06T10:36:42;93946.00;;;19.97;36.41
6024;BME280;3040;42.654;23.296;2024-03-06T10:39:11;94045.59;;;19.87;37.69
6024;BME280;3040;42.654;23.296;2024-03-06T10:41:40;94065.22;;;19.91;37.94
6024;BME280;3040;42.654;23.296;2024-03-06T10:44:10;94062.81;;;20.38;37.87
6024;BME280;3040;42.654;23.296;2024-03-06T10:46:41;94063.28;;;20.67;36.58
6024;BME280;3040;42.654;23.296;2024-03-06T10:49:10;94056.03;;;21.18;34.67
6024;BME280;3040;42.654;23.296;2024-03-06T10:51:40;94058.81;;;21.87;34.20
6024;BME280;3040;42.654;23.296;2024-03-06T10:54:11;94034.81;;;22.32;33.32
6024;BME280;3040;42.654;23.296;2024-03-06T10:56:40;94015.91;;;22.49;32.19
6024;BME280;3040;42.654;23.296;2024-03-06T10:59:10;94036.69;;;22.55;32.23
6024;BME280;3040;42.654;23.296;2024-03-06T11:01:39;94044.13;;;22.31;31.17
6024;BME280;3040;42.654;23.296;2024-03-06T11:04:06;94040.16;;;22.56;31.29
6024;BME280;3040;42.654;23.296;2024-03-06T11:06:33;94034.38;;;22.14;30.85
6024;BME280;3040;42.654;23.296;2024-03-06T11:09:00;94029.19;;;22.23;30.91
6024;BME280;3040;42.654;23.296;2024-03-06T11:11:29;94031.28;;;21.92;32.12
6024;BME280;3040;42.654;23.296;2024-03-06T11:14:00;93980.63;;;21.89;31.29
6024;BME280;3040;42.654;23.296;2024-03-06T11:16:28;94015.28;;;22.81;30.73
6024;BME280;3040;42.654;23.296;2024-03-06T11:19:05;93981.16;;;23.16;28.79
6024;BME280;3040;42.654;23.296;2024-03-06T11:21:32;94015.47;;;23.74;28.75
6024;BME280;3040;42.654;23.296;2024-03-06T11:24:16;93896.19;;;23.35;28.12
6024;BME280;3040;42.654;23.296;2024-03-06T11:26:47;94004.00;;;24.12;27.33
6024;BME280;3040;42.654;23.296;2024-03-06T11:29:18;94002.66;;;24.20;27.11
6024;BME280;3040;42.654;23.296;2024-03-06T11:32:05;93974.78;;;24.45;26.93
6024;BME280;3040;42.654;23.296;2024-03-06T11:34:34;93988.72;;;25.01;26.50
6024;BME280;3040;42.654;23.296;2024-03-06T11:37:03;93959.97;;;25.25;25.54
6024;BME280;3040;42.654;23.296;2024-03-06T11:39:34;93969.88;;;24.94;25.94
6024;BME280;3040;42.654;23.296;2024-03-06T11:42:04;93981.56;;;24.78;26.94
6024;BME280;3040;42.654;23.296;2024-03-06T11:44:34;93981.84;;;24.42;27.45
6024;BME280;3040;42.654;23.296;2024-03-06T11:47:02;93981.56;;;24.65;26.52
6024;BME280;3040;42.654;23.296;2024-03-06T11:49:29;93970.63;;;23.99;29.54
6024;BME280;3040;42.654;23.296;2024-03-06T11:52:01;93846.50;;;23.54;27.12
6024;BME280;3040;42.654;23.296;2024-03-06T11:54:29;93979.63;;;22.82;27.49
6024;BME280;3040;42.654;23.296;2024-03-06T11:56:57;93975.63;;;21.68;28.70
6024;BME280;3040;42.654;23.296;2024-03-06T11:59:26;93982.34;;;22.03;29.09
6024;BME280;3040;42.654;23.296;2024-03-06T12:01:55;93975.16;;;22.36;28.83
6024;BME280;3040;42.654;23.296;2024-03-06T12:04:22;93966.00;;;22.66;28.15
6024;BME280;3040;42.654;23.296;2024-03-06T12:06:50;93961.41;;;22.99;27.95
6024;BME280;3040;42.654;23.296;2024-03-06T12:09:17;93842.28;;;22.40;27.18
6024;BME280;3040;42.654;23.296;2024-03-06T12:11:44;93855.94;;;22.68;27.16
6024;BME280;3040;42.654;23.296;2024-03-06T12:14:14;93956.53;;;22.74;28.05
6024;BME280;3040;42.654;23.296;2024-03-06T12:16:44;93944.97;;;23.22;26.61
6024;BME280;3040;42.654;23.296;2024-03-06T12:19:10;93952.44;;;23.34;26.70
6024;BME280;3040;42.654;23.296;2024-03-06T12:21:39;93956.38;;;22.81;27.54
6024;BME280;3040;42.654;23.296;2024-03-06T12:24:07;93959.97;;;22.58;27.55
6024;BME280;3040;42.654;23.296;2024-03-06T12:26:34;93931.34;;;21.78;28.14
6024;BME280;3040;42.654;23.296;2024-03-06T12:29:08;93930.16;;;21.60;27.98
6024;BME280;3040;42.654;23.296;2024-03-06T12:31:36;93938.59;;;21.19;29.24
6024;BME280;3040;42.654;23.296;2024-03-06T12:34:05;93921.66;;;20.88;30.08
6024;BME280;3040;42.654;23.296;2024-03-06T12:36:32;93897.16;;;20.48;30.44
6024;BME280;3040;42.654;23.296;2024-03-06T12:39:00;93934.63;;;20.46;30.62
6024;BME280;3040;42.654;23.296;2024-03-06T12:41:28;93931.72;;;20.60;30.48
6024;BME280;3040;42.654;23.296;2024-03-06T12:43:55;93939.88;;;20.57;31.03
6024;BME280;3040;42.654;23.296;2024-03-06T12:46:23;93919.22;;;20.13;31.52
6024;BME280;3040;42.654;23.296;2024-03-06T12:48:52;93938.91;;;20.10;30.82
6024;BME280;3040;42.654;23.296;2024-03-06T12:51:20;93912.53;;;20.21;31.34
6024;BME280;3040;42.654;23.296;2024-03-06T12:53:47;93818.53;;;19.85;34.77
6024;BME280;3040;42.654;23.296;2024-03-06T12:56:14;93945.69;;;21.09;34.94
6024;BME280;3040;42.654;23.296;2024-03-06T12:58:41;93942.13;;;21.59;34.19
6024;BME280;3040;42.654;23.296;2024-03-06T13:01:08;93950.72;;;21.77;34.30
6024;BME280;3040;42.654;23.296;2024-03-06T13:03:35;93943.47;;;21.27;35.16
6024;BME280;3040;42.654;23.296;2024-03-06T13:06:02;93938.13;;;20.97;35.25
6024;BME280;3040;42.654;23.296;2024-03-06T13:08:31;93845.88;;;19.87;35.87
6024;BME280;3040;42.654;23.296;2024-03-06T13:10:58;93952.63;;;19.92;36.91
6024;BME280;3040;42.654;23.296;2024-03-06T13:13:25;93949.22;;;19.47;57.67
6024;BME280;3040;42.654;23.296;2024-03-06T13:15:54;93946.31;;;19.24;41.59
6024;BME280;3040;42.654;23.296;2024-03-06T13:18:21;93956.16;;;19.00;41.38
6024;BME280;3040;42.654;23.296;2024-03-06T13:20:48;93950.72;;;18.48;41.97